Santa Fe Municipal Airport Santa Fe US
ICAO: KSAF
IATA: SAF
Category: Medium
Scheduled Services: No

Elevation: 6348 ft
TransAlt. 18000 ft.

Airport Communications:
ATIS:128.55
ALBUQUERQUE CNTR:132.8
CTAF:119.5
GND:121.7
ALBUQUERQUE RDO:122.2
TWR:119.5
UNICOM:122.95

KSAF Zoom In..

If you have problems with the map follow the link
https://www.worldairports.se/pages/airport.php?
ICAO=KSAF

Runways:

(A) RW 02 length 8366 ft width 150 ft
ILS 111.70 / hdg 23

(B) RW 10 length 6301 ft width 75 ft
---- / hdg 100

(C) RW 15 length 6316 ft width 100 ft
---- / hdg 155

(D) RW 20 length 8366 ft width 150 ft
---- / hdg 203

(E) RW 28 length 6301 ft width 75 ft
---- / hdg 280

(F) RW 33 length 6316 ft width 100 ft
---- / hdg 335

Location; KSAF
Day. 13 / Time. 19.53 Zulu
* Altimeter: 30.05
* Temperature: 12° c. 53.6°f.
* Wind from: 290° Speed 21 kn with Gusts up to 30 kn.
Dewpoint: -04° c.
Visibility: 10 Statute Miles.
Clouds: Clear (automated report).

KSAF 131953Z 29021G30KT 10SM CLR 12/M04 A3005 RMK AO2 PK WND 29032/1921 SLP142 T01171044


Wind From 290°
Speed 21 kn.

 
 
jpsmedia worldairports.se 2019   terms of use